sensor_id;sensor_type;location;lat;lon;timestamp;pressure;altitude;pressure_sealevel;temperature;humidity
64158;BME280;50449;51.528;5.076;2023-08-08T00:01:40;101395.22;;;20.35;51.03
64158;BME280;50449;51.528;5.076;2023-08-08T00:04:08;101386.19;;;20.34;51.25
64158;BME280;50449;51.528;5.076;2023-08-08T00:06:33;101390.31;;;20.31;51.29
64158;BME280;50449;51.528;5.076;2023-08-08T00:08:59;101397.22;;;20.29;51.35
64158;BME280;50449;51.528;5.076;2023-08-08T00:11:24;101395.28;;;20.29;51.02
64158;BME280;50449;51.528;5.076;2023-08-08T00:13:49;101388.47;;;20.27;50.95
64158;BME280;50449;51.528;5.076;2023-08-08T00:16:14;101389.53;;;20.26;51.10
64158;BME280;50449;51.528;5.076;2023-08-08T00:18:40;101384.38;;;20.24;51.37
64158;BME280;50449;51.528;5.076;2023-08-08T00:21:05;101384.97;;;20.21;51.00
64158;BME280;50449;51.528;5.076;2023-08-08T00:23:30;101375.88;;;20.21;51.35
64158;BME280;50449;51.528;5.076;2023-08-08T00:25:55;101382.50;;;20.20;51.10
64158;BME280;50449;51.528;5.076;2023-08-08T00:28:21;101384.72;;;20.18;51.34
64158;BME280;50449;51.528;5.076;2023-08-08T00:30:46;101385.84;;;20.17;51.06
64158;BME280;50449;51.528;5.076;2023-08-08T00:33:11;101385.31;;;20.15;51.46
64158;BME280;50449;51.528;5.076;2023-08-08T00:35:36;101383.69;;;20.14;51.43
64158;BME280;50449;51.528;5.076;2023-08-08T00:38:02;101382.34;;;20.11;51.44
64158;BME280;50449;51.528;5.076;2023-08-08T00:40:27;101380.69;;;20.10;51.17
64158;BME280;50449;51.528;5.076;2023-08-08T00:42:52;101379.06;;;20.09;51.25
64158;BME280;50449;51.528;5.076;2023-08-08T00:45:18;101379.34;;;20.07;51.07
64158;BME280;50449;51.528;5.076;2023-08-08T00:47:43;101379.66;;;20.06;51.19
64158;BME280;50449;51.528;5.076;2023-08-08T00:50:08;101369.78;;;20.05;51.42
64158;BME280;50449;51.528;5.076;2023-08-08T00:52:34;101368.97;;;20.04;51.17
64158;BME280;50449;51.528;5.076;2023-08-08T00:55:00;101371.97;;;20.03;51.46
64158;BME280;50449;51.528;5.076;2023-08-08T00:57:26;101366.81;;;20.01;51.18
64158;BME280;50449;51.528;5.076;2023-08-08T00:59:52;101369.81;;;20.00;51.20
64158;BME280;50449;51.528;5.076;2023-08-08T01:02:17;101370.13;;;19.98;51.57
64158;BME280;50449;51.528;5.076;2023-08-08T01:04:42;101368.50;;;19.97;51.33
64158;BME280;50449;51.528;5.076;2023-08-08T01:09:45;101358.91;;;19.95;51.30
64158;BME280;50449;51.528;5.076;2023-08-08T01:12:12;101357.28;;;19.94;51.26
64158;BME280;50449;51.528;5.076;2023-08-08T01:14:38;101361.13;;;19.93;51.33
64158;BME280;50449;51.528;5.076;2023-08-08T01:17:05;101357.84;;;19.91;51.72
64158;BME280;50449;51.528;5.076;2023-08-08T01:19:31;101357.03;;;19.90;51.39
64158;BME280;50449;51.528;5.076;2023-08-08T01:21:58;101356.50;;;19.88;51.49
64158;BME280;50449;51.528;5.076;2023-08-08T01:24:26;101358.75;;;19.86;51.39
64158;BME280;50449;51.528;5.076;2023-08-08T01:26:54;101357.91;;;19.85;51.72
64158;BME280;50449;51.528;5.076;2023-08-08T01:29:19;101355.47;;;19.84;51.51
64158;BME280;50449;51.528;5.076;2023-08-08T01:31:45;101353.00;;;19.82;51.41
64158;BME280;50449;51.528;5.076;2023-08-08T01:34:10;101354.94;;;19.82;51.71
64158;BME280;50449;51.528;5.076;2023-08-08T01:36:39;101354.41;;;19.80;51.74
64158;BME280;50449;51.528;5.076;2023-08-08T01:39:07;101341.81;;;19.79;51.82
64158;BME280;50449;51.528;5.076;2023-08-08T01:41:36;101349.22;;;19.78;51.30
64158;BME280;50449;51.528;5.076;2023-08-08T01:44:03;101342.09;;;19.77;51.64
64158;BME280;50449;51.528;5.076;2023-08-08T01:46:29;101336.09;;;19.75;51.79
64158;BME280;50449;51.528;5.076;2023-08-08T01:48:54;101338.81;;;19.75;51.85
64158;BME280;50449;51.528;5.076;2023-08-08T01:51:19;101334.47;;;19.74;51.49
64158;BME280;50449;51.528;5.076;2023-08-08T01:53:45;101337.47;;;19.73;51.56
64158;BME280;50449;51.528;5.076;2023-08-08T01:56:10;101338.59;;;19.72;51.53
64158;BME280;50449;51.528;5.076;2023-08-08T01:58:35;101336.13;;;19.70;51.89
64158;BME280;50449;51.528;5.076;2023-08-08T02:01:00;101344.66;;;19.69;51.66
64158;BME280;50449;51.528;5.076;2023-08-08T02:03:26;101341.13;;;19.68;51.86
64158;BME280;50449;51.528;5.076;2023-08-08T02:05:51;101336.72;;;19.67;51.69
64158;BME280;50449;51.528;5.076;2023-08-08T02:08:16;101340.56;;;19.66;51.54
64158;BME280;50449;51.528;5.076;2023-08-08T02:10:43;101337.00;;;19.65;51.94
64158;BME280;50449;51.528;5.076;2023-08-08T02:13:08;101338.38;;;19.63;51.98
64158;BME280;50449;51.528;5.076;2023-08-08T02:15:33;101326.59;;;19.62;51.72
64158;BME280;50449;51.528;5.076;2023-08-08T02:17:59;101334.28;;;19.60;51.64
64158;BME280;50449;51.528;5.076;2023-08-08T02:20:25;101324.44;;;19.59;51.75
64158;BME280;50449;51.528;5.076;2023-08-08T02:22:51;101325.56;;;19.58;51.70
64158;BME280;50449;51.528;5.076;2023-08-08T02:25:16;101334.88;;;19.57;51.82
64158;BME280;50449;51.528;5.076;2023-08-08T02:27:41;101336.78;;;19.57;52.08
64158;BME280;50449;51.528;5.076;2023-08-08T02:30:06;101331.59;;;19.55;51.77
64158;BME280;50449;51.528;5.076;2023-08-08T02:32:32;101320.94;;;19.54;51.90
64158;BME280;50449;51.528;5.076;2023-08-08T02:34:57;101314.66;;;19.53;52.04
64158;BME280;50449;51.528;5.076;2023-08-08T02:37:22;101312.19;;;19.52;52.01
64158;BME280;50449;51.528;5.076;2023-08-08T02:39:48;101312.47;;;19.50;51.82
64158;BME280;50449;51.528;5.076;2023-08-08T02:42:13;101310.03;;;19.49;51.79
64158;BME280;50449;51.528;5.076;2023-08-08T02:44:38;101315.50;;;19.49;52.16
64158;BME280;50449;51.528;5.076;2023-08-08T02:47:03;101310.03;;;19.49;52.19
64158;BME280;50449;51.528;5.076;2023-08-08T02:49:29;101314.16;;;19.46;51.90
64158;BME280;50449;51.528;5.076;2023-08-08T02:51:54;101310.59;;;19.45;52.15
64158;BME280;50449;51.528;5.076;2023-08-08T02:54:20;101305.41;;;19.44;52.20
64158;BME280;50449;51.528;5.076;2023-08-08T02:56:45;101302.66;;;19.44;51.91
64158;BME280;50449;51.528;5.076;2023-08-08T02:59:10;101296.66;;;19.42;52.32
64158;BME280;50449;51.528;5.076;2023-08-08T03:01:35;101300.50;;;19.41;51.94
64158;BME280;50449;51.528;5.076;2023-08-08T03:04:04;101309.81;;;19.40;52.38
64158;BME280;50449;51.528;5.076;2023-08-08T03:06:29;101303.53;;;19.39;52.32
64158;BME280;50449;51.528;5.076;2023-08-08T03:08:55;101302.19;;;19.37;52.08
64158;BME280;50449;51.528;5.076;2023-08-08T03:11:20;101303.00;;;19.37;52.05
64158;BME280;50449;51.528;5.076;2023-08-08T03:13:45;101294.28;;;19.35;52.16
64158;BME280;50449;51.528;5.076;2023-08-08T03:16:10;101294.53;;;19.34;52.46
64158;BME280;50449;51.528;5.076;2023-08-08T03:18:36;101301.94;;;19.33;52.18
64158;BME280;50449;51.528;5.076;2023-08-08T03:21:01;101305.78;;;19.32;52.39
64158;BME280;50449;51.528;5.076;2023-08-08T03:23:26;101298.69;;;19.31;52.47
64158;BME280;50449;51.528;5.076;2023-08-08T03:25:51;101300.59;;;19.31;52.14
64158;BME280;50449;51.528;5.076;2023-08-08T03:28:17;101297.88;;;19.31;52.25
64158;BME280;50449;51.528;5.076;2023-08-08T03:30:42;101300.88;;;19.29;52.14
64158;BME280;50449;51.528;5.076;2023-08-08T03:33:07;101294.88;;;19.27;52.41
64158;BME280;50449;51.528;5.076;2023-08-08T03:35:32;101295.69;;;19.28;52.62
64158;BME280;50449;51.528;5.076;2023-08-08T03:37:58;101291.31;;;19.27;52.61
64158;BME280;50449;51.528;5.076;2023-08-08T03:40:23;101286.97;;;19.26;52.48
64158;BME280;50449;51.528;5.076;2023-08-08T03:42:48;101288.84;;;19.25;52.23
64158;BME280;50449;51.528;5.076;2023-08-08T03:45:14;101287.22;;;19.24;52.71
64158;BME280;50449;51.528;5.076;2023-08-08T03:47:39;101288.34;;;19.23;52.40
64158;BME280;50449;51.528;5.076;2023-08-08T03:50:05;101284.78;;;19.22;52.68
64158;BME280;50449;51.528;5.076;2023-08-08T03:52:30;101287.00;;;19.20;52.68
64158;BME280;50449;51.528;5.076;2023-08-08T03:54:56;101281.53;;;19.20;52.69
64158;BME280;50449;51.528;5.076;2023-08-08T03:57:21;101293.56;;;19.19;52.46
64158;BME280;50449;51.528;5.076;2023-08-08T03:59:46;101284.53;;;19.19;52.80
64158;BME280;50449;51.528;5.076;2023-08-08T04:02:12;101281.28;;;19.17;52.78
64158;BME280;50449;51.528;5.076;2023-08-08T04:04:37;101280.47;;;19.16;52.69
64158;BME280;50449;51.528;5.076;2023-08-08T04:07:03;101289.78;;;19.15;52.60
64158;BME280;50449;51.528;5.076;2023-08-08T04:09:29;101288.13;;;19.14;52.85
64158;BME280;50449;51.528;5.076;2023-08-08T04:11:54;101283.78;;;19.13;52.79
64158;BME280;50449;51.528;5.076;2023-08-08T04:14:19;101282.97;;;19.13;52.49
64158;BME280;50449;51.528;5.076;2023-08-08T04:16:45;101278.56;;;19.12;52.60
64158;BME280;50449;51.528;5.076;2023-08-08T04:19:10;101281.63;;;19.10;52.56
64158;BME280;50449;51.528;5.076;2023-08-08T04:21:35;101274.50;;;19.09;52.89
64158;BME280;50449;51.528;5.076;2023-08-08T04:24:01;101274.78;;;19.08;52.91
64158;BME280;50449;51.528;5.076;2023-08-08T04:26:26;101279.44;;;19.07;53.19
64158;BME280;50449;51.528;5.076;2023-08-08T04:28:51;101285.22;;;19.06;52.90
64158;BME280;50449;51.528;5.076;2023-08-08T04:31:17;101285.47;;;19.04;52.64
64158;BME280;50449;51.528;5.076;2023-08-08T04:33:42;101284.41;;;19.05;52.65
64158;BME280;50449;51.528;5.076;2023-08-08T04:36:08;101280.31;;;19.02;52.81
64158;BME280;50449;51.528;5.076;2023-08-08T04:38:33;101288.53;;;19.02;52.75
64158;BME280;50449;51.528;5.076;2023-08-08T04:40:58;101290.72;;;19.00;52.96
64158;BME280;50449;51.528;5.076;2023-08-08T04:43:24;101290.72;;;19.00;52.79
64158;BME280;50449;51.528;5.076;2023-08-08T04:45:50;101290.19;;;18.98;52.71
64158;BME280;50449;51.528;5.076;2023-08-08T04:48:15;101294.56;;;18.99;52.84
64158;BME280;50449;51.528;5.076;2023-08-08T04:50:41;101294.00;;;18.97;52.69
64158;BME280;50449;51.528;5.076;2023-08-08T04:53:06;101292.38;;;18.96;52.76
64158;BME280;50449;51.528;5.076;2023-08-08T04:55:31;101293.50;;;18.95;53.01
64158;BME280;50449;51.528;5.076;2023-08-08T04:57:57;101289.13;;;18.94;53.07
64158;BME280;50449;51.528;5.076;2023-08-08T05:00:22;101287.50;;;18.93;52.98
64158;BME280;50449;51.528;5.076;2023-08-08T05:02:47;101291.31;;;18.92;52.85
64158;BME280;50449;51.528;5.076;2023-08-08T05:05:12;101289.69;;;18.91;52.85
64158;BME280;50449;51.528;5.076;2023-08-08T05:07:38;101285.34;;;18.90;53.03
64158;BME280;50449;51.528;5.076;2023-08-08T05:10:03;101292.72;;;18.90;53.08
64158;BME280;50449;51.528;5.076;2023-08-08T05:12:29;101297.38;;;18.89;52.94
64158;BME280;50449;51.528;5.076;2023-08-08T05:14:54;101289.47;;;18.88;53.17
64158;BME280;50449;51.528;5.076;2023-08-08T05:17:20;101291.66;;;18.86;52.82
64158;BME280;50449;51.528;5.076;2023-08-08T05:19:45;101288.91;;;18.86;53.25
64158;BME280;50449;51.528;5.076;2023-08-08T05:22:10;101290.84;;;18.85;52.99
64158;BME280;50449;51.528;5.076;2023-08-08T05:24:36;101295.47;;;18.85;53.19
64158;BME280;50449;51.528;5.076;2023-08-08T05:27:01;101290.31;;;18.83;53.47
64158;BME280;50449;51.528;5.076;2023-08-08T05:29:26;101303.19;;;18.83;53.43
64158;BME280;50449;51.528;5.076;2023-08-08T05:31:51;101305.06;;;18.82;53.50
64158;BME280;50449;51.528;5.076;2023-08-08T05:34:17;101301.53;;;18.81;53.12
64158;BME280;50449;51.528;5.076;2023-08-08T05:36:42;101307.81;;;18.82;53.34
64158;BME280;50449;51.528;5.076;2023-08-08T05:39:07;101303.47;;;18.81;53.19
64158;BME280;50449;51.528;5.076;2023-08-08T05:41:34;101300.72;;;18.81;53.29
64158;BME280;50449;51.528;5.076;2023-08-08T05:43:59;101300.72;;;18.81;53.43
64158;BME280;50449;51.528;5.076;2023-08-08T05:46:25;101297.97;;;18.81;53.32
64158;BME280;50449;51.528;5.076;2023-08-08T05:48:50;101294.44;;;18.80;53.20
64158;BME280;50449;51.528;5.076;2023-08-08T05:51:15;101297.44;;;18.79;53.50
64158;BME280;50449;51.528;5.076;2023-08-08T05:53:41;101294.72;;;18.79;53.51
64158;BME280;50449;51.528;5.076;2023-08-08T05:56:06;101292.78;;;18.79;53.20
64158;BME280;50449;51.528;5.076;2023-08-08T05:58:31;101298.56;;;18.78;53.19
64158;BME280;50449;51.528;5.076;2023-08-08T06:00:56;101296.63;;;18.78;53.90
64158;BME280;50449;51.528;5.076;2023-08-08T06:03:22;101298.56;;;18.78;53.87
64158;BME280;50449;51.528;5.076;2023-08-08T06:05:47;101299.63;;;18.77;53.84
64158;BME280;50449;51.528;5.076;2023-08-08T06:08:13;101301.28;;;18.78;53.90
64158;BME280;50449;51.528;5.076;2023-08-08T06:10:39;101308.69;;;18.77;53.69
64158;BME280;50449;51.528;5.076;2023-08-08T06:13:05;101310.31;;;18.78;53.71
64158;BME280;50449;51.528;5.076;2023-08-08T06:15:30;101303.22;;;18.77;53.87
64158;BME280;50449;51.528;5.076;2023-08-08T06:17:55;101305.97;;;18.77;53.63
64158;BME280;50449;51.528;5.076;2023-08-08T06:20:20;101308.69;;;18.77;53.79
64158;BME280;50449;51.528;5.076;2023-08-08T06:22:46;101304.03;;;18.78;53.92
64158;BME280;50449;51.528;5.076;2023-08-08T06:25:11;101314.97;;;18.78;53.67
64158;BME280;50449;51.528;5.076;2023-08-08T06:27:37;101313.59;;;18.80;53.81
64158;BME280;50449;51.528;5.076;2023-08-08T06:30:02;101316.34;;;18.80;53.62
64158;BME280;50449;51.528;5.076;2023-08-08T06:32:28;101316.34;;;18.80;53.74
64158;BME280;50449;51.528;5.076;2023-08-08T06:34:53;101318.25;;;18.80;53.84
64158;BME280;50449;51.528;5.076;2023-08-08T06:37:20;101311.66;;;18.81;53.84
64158;BME280;50449;51.528;5.076;2023-08-08T06:39:45;101309.75;;;18.81;53.68
64158;BME280;50449;51.528;5.076;2023-08-08T06:42:10;101316.03;;;18.82;53.71
64158;BME280;50449;51.528;5.076;2023-08-08T06:44:40;101314.94;;;18.83;54.06
64158;BME280;50449;51.528;5.076;2023-08-08T06:47:06;101314.13;;;18.83;53.52
64158;BME280;50449;51.528;5.076;2023-08-08T06:49:31;101316.56;;;18.84;53.52
64158;BME280;50449;51.528;5.076;2023-08-08T06:51:57;101309.16;;;18.85;53.58
64158;BME280;50449;51.528;5.076;2023-08-08T06:54:22;101314.63;;;18.85;53.91
64158;BME280;50449;51.528;5.076;2023-08-08T06:56:47;101309.72;;;18.87;53.70
64158;BME280;50449;51.528;5.076;2023-08-08T06:59:12;101303.41;;;18.86;53.53
64158;BME280;50449;51.528;5.076;2023-08-08T07:01:38;101315.19;;;18.87;53.87
64158;BME280;50449;51.528;5.076;2023-08-08T07:04:03;101317.09;;;18.86;53.62
64158;BME280;50449;51.528;5.076;2023-08-08T07:06:28;101316.84;;;18.88;53.77
64158;BME280;50449;51.528;5.076;2023-08-08T07:08:54;101315.72;;;18.89;54.00
64158;BME280;50449;51.528;5.076;2023-08-08T07:11:19;101324.75;;;18.89;54.02
64158;BME280;50449;51.528;5.076;2023-08-08T07:13:44;101315.44;;;18.90;54.07
64158;BME280;50449;51.528;5.076;2023-08-08T07:16:09;101322.28;;;18.93;54.06
64158;BME280;50449;51.528;5.076;2023-08-08T07:18:35;101316.50;;;18.94;54.07
64158;BME280;50449;51.528;5.076;2023-08-08T07:21:00;101318.97;;;18.96;53.86
64158;BME280;50449;51.528;5.076;2023-08-08T07:23:25;101315.91;;;18.97;54.00
64158;BME280;50449;51.528;5.076;2023-08-08T07:25:50;101318.38;;;18.99;54.19
64158;BME280;50449;51.528;5.076;2023-08-08T07:28:16;101315.38;;;19.00;53.97
64158;BME280;50449;51.528;5.076;2023-08-08T07:30:41;101317.00;;;19.01;53.88
64158;BME280;50449;51.528;5.076;2023-08-08T07:33:07;101317.53;;;19.03;53.98
64158;BME280;50449;51.528;5.076;2023-08-08T07:35:35;101316.41;;;19.05;54.25
64158;BME280;50449;51.528;5.076;2023-08-08T07:38:00;101311.47;;;19.07;54.03
64158;BME280;50449;51.528;5.076;2023-08-08T07:40:25;101312.00;;;19.09;54.24
64158;BME280;50449;51.528;5.076;2023-08-08T07:42:51;101310.91;;;19.10;54.28
64158;BME280;50449;51.528;5.076;2023-08-08T07:45:16;101311.44;;;19.12;54.03
64158;BME280;50449;51.528;5.076;2023-08-08T07:47:41;101311.97;;;19.14;54.35
64158;BME280;50449;51.528;5.076;2023-08-08T07:50:07;101305.38;;;19.15;54.10
64158;BME280;50449;51.528;5.076;2023-08-08T07:52:36;101311.38;;;19.17;54.33
64158;BME280;50449;51.528;5.076;2023-08-08T07:55:02;101313.84;;;19.18;54.37
64158;BME280;50449;51.528;5.076;2023-08-08T07:57:28;101313.56;;;19.20;54.42
64158;BME280;50449;51.528;5.076;2023-08-08T07:59:53;101323.13;;;19.22;54.34
64158;BME280;50449;51.528;5.076;2023-08-08T08:02:18;101318.16;;;19.24;54.25
64158;BME280;50449;51.528;5.076;2023-08-08T08:04:44;101313.22;;;19.27;54.43
64158;BME280;50449;51.528;5.076;2023-08-08T08:07:09;101318.44;;;19.28;54.17
64158;BME280;50449;51.528;5.076;2023-08-08T08:09:34;101316.19;;;19.30;54.34
64158;BME280;50449;51.528;5.076;2023-08-08T08:12:00;101320.31;;;19.33;54.22
64158;BME280;50449;51.528;5.076;2023-08-08T08:14:25;101315.34;;;19.35;54.39
64158;BME280;50449;51.528;5.076;2023-08-08T08:16:50;101320.28;;;19.38;54.17
64158;BME280;50449;51.528;5.076;2023-08-08T08:19:16;101322.69;;;19.39;54.63
64158;BME280;50449;51.528;5.076;2023-08-08T08:21:41;101316.13;;;19.40;54.58
64158;BME280;50449;51.528;5.076;2023-08-08T08:24:06;101322.97;;;19.43;54.68
64158;BME280;50449;51.528;5.076;2023-08-08T08:26:32;101321.56;;;19.45;54.61
64158;BME280;50449;51.528;5.076;2023-08-08T08:28:57;101316.59;;;19.48;54.66
64158;BME280;50449;51.528;5.076;2023-08-08T08:31:22;101316.59;;;19.48;54.31
64158;BME280;50449;51.528;5.076;2023-08-08T08:33:48;101322.31;;;19.51;54.59
64158;BME280;50449;51.528;5.076;2023-08-08T08:36:13;101320.41;;;19.52;54.82
64158;BME280;50449;51.528;5.076;2023-08-08T08:38:38;101317.88;;;19.55;54.46
64158;BME280;50449;51.528;5.076;2023-08-08T08:41:03;101317.59;;;19.57;54.33
64158;BME280;50449;51.528;5.076;2023-08-08T08:43:30;101312.66;;;19.59;54.58
64158;BME280;50449;51.528;5.076;2023-08-08T08:45:55;101316.75;;;19.61;54.80
64158;BME280;50449;51.528;5.076;2023-08-08T08:48:22;101320.84;;;19.64;54.44
64158;BME280;50449;51.528;5.076;2023-08-08T08:50:48;101321.38;;;19.66;54.83
64158;BME280;50449;51.528;5.076;2023-08-08T08:53:14;101324.66;;;19.68;54.44
64158;BME280;50449;51.528;5.076;2023-08-08T08:55:40;101325.16;;;19.70;54.40
64158;BME280;50449;51.528;5.076;2023-08-08T08:58:06;101326.50;;;19.73;54.83
64158;BME280;50449;51.528;5.076;2023-08-08T09:00:31;101327.84;;;19.75;54.34
64158;BME280;50449;51.528;5.076;2023-08-08T09:02:57;101329.19;;;19.78;54.57
64158;BME280;50449;51.528;5.076;2023-08-08T09:05:23;101327.00;;;19.80;54.57
64158;BME280;50449;51.528;5.076;2023-08-08T09:07:49;101331.06;;;19.82;54.78
64158;BME280;50449;51.528;5.076;2023-08-08T09:10:16;101330.81;;;19.84;54.78
64158;BME280;50449;51.528;5.076;2023-08-08T09:12:42;101324.19;;;19.85;54.57
64158;BME280;50449;51.528;5.076;2023-08-08T09:15:07;101330.50;;;19.85;54.82
64158;BME280;50449;51.528;5.076;2023-08-08T09:17:34;101329.09;;;19.88;54.60
64158;BME280;50449;51.528;5.076;2023-08-08T09:19:59;101334.28;;;19.89;54.50
64158;BME280;50449;51.528;5.076;2023-08-08T09:22:24;101334.81;;;19.92;54.65
64158;BME280;50449;51.528;5.076;2023-08-08T09:24:51;101333.72;;;19.93;54.98
64158;BME280;50449;51.528;5.076;2023-08-08T09:27:17;101336.16;;;19.94;54.98
64158;BME280;50449;51.528;5.076;2023-08-08T09:29:42;101332.31;;;19.95;54.72
64158;BME280;50449;51.528;5.076;2023-08-08T09:32:07;101329.28;;;19.97;54.99
64158;BME280;50449;51.528;5.076;2023-08-08T09:34:33;101334.50;;;19.98;54.81
64158;BME280;50449;51.528;5.076;2023-08-08T09:36:59;101327.59;;;20.01;54.41
64158;BME280;50449;51.528;5.076;2023-08-08T09:39:25;101333.91;;;20.01;54.44
64158;BME280;50449;51.528;5.076;2023-08-08T09:41:50;101330.56;;;20.04;54.90
64158;BME280;50449;51.528;5.076;2023-08-08T09:44:15;101327.81;;;20.04;54.44
64158;BME280;50449;51.528;5.076;2023-08-08T09:46:41;101332.72;;;20.07;54.40
64158;BME280;50449;51.528;5.076;2023-08-08T09:49:06;101325.03;;;20.09;54.79
64158;BME280;50449;51.528;5.076;2023-08-08T09:51:31;101328.28;;;20.12;54.42
64158;BME280;50449;51.528;5.076;2023-08-08T09:53:58;101318.94;;;20.13;54.41
64158;BME280;50449;51.528;5.076;2023-08-08T09:56:24;101325.78;;;20.15;54.45
64158;BME280;50449;51.528;5.076;2023-08-08T09:58:50;101330.38;;;20.20;54.65
64158;BME280;50449;51.528;5.076;2023-08-08T10:01:16;101322.38;;;20.23;54.79
64158;BME280;50449;51.528;5.076;2023-08-08T10:03:41;101328.38;;;20.25;54.39
64158;BME280;50449;51.528;5.076;2023-08-08T10:06:10;101328.63;;;20.29;54.70
64158;BME280;50449;51.528;5.076;2023-08-08T10:08:35;101326.41;;;20.31;54.80
64158;BME280;50449;51.528;5.076;2023-08-08T10:11:01;101325.00;;;20.34;54.36
64158;BME280;50449;51.528;5.076;2023-08-08T10:13:27;101334.25;;;20.38;54.49
64158;BME280;50449;51.528;5.076;2023-08-08T10:15:53;101340.00;;;20.41;54.35
64158;BME280;50449;51.528;5.076;2023-08-08T10:18:20;101341.34;;;20.44;54.77
64158;BME280;50449;51.528;5.076;2023-08-08T10:20:49;101340.44;;;20.48;54.36
64158;BME280;50449;51.528;5.076;2023-08-08T10:23:15;101338.75;;;20.52;54.24
64158;BME280;50449;51.528;5.076;2023-08-08T10:25:47;101347.22;;;20.56;54.55
64158;BME280;50449;51.528;5.076;2023-08-08T10:28:14;101335.69;;;20.59;54.53
64158;BME280;50449;51.528;5.076;2023-08-08T10:30:53;101334.25;;;20.62;54.27
64158;BME280;50449;51.528;5.076;2023-08-08T10:33:22;101342.72;;;20.65;54.65
64158;BME280;50449;51.528;5.076;2023-08-08T10:35:58;101334.72;;;20.69;54.22
64158;BME280;50449;51.528;5.076;2023-08-08T10:38:24;101325.06;;;20.71;54.38
64158;BME280;50449;51.528;5.076;2023-08-08T10:40:56;101333.50;;;20.75;54.56
64158;BME280;50449;51.528;5.076;2023-08-08T10:43:25;101325.81;;;20.77;54.46
64158;BME280;50449;51.528;5.076;2023-08-08T10:45:50;101331.50;;;20.81;54.52
64158;BME280;50449;51.528;5.076;2023-08-08T10:48:15;101332.84;;;20.83;54.32
64158;BME280;50449;51.528;5.076;2023-08-08T10:50:43;101330.34;;;20.87;54.66
64158;BME280;50449;51.528;5.076;2023-08-08T10:53:08;101328.09;;;20.89;54.50
64158;BME280;50449;51.528;5.076;2023-08-08T10:55:37;101316.53;;;20.92;54.52
64158;BME280;50449;51.528;5.076;2023-08-08T11:00:28;101335.97;;;20.95;54.19
64158;BME280;50449;51.528;5.076;2023-08-08T11:02:54;101325.50;;;20.98;54.20
64158;BME280;50449;51.528;5.076;2023-08-08T11:05:23;101326.81;;;21.00;54.39
64158;BME280;50449;51.528;5.076;2023-08-08T11:07:48;101326.53;;;21.02;54.09
64158;BME280;50449;51.528;5.076;2023-08-08T11:10:14;101323.47;;;21.03;54.44
64158;BME280;50449;51.528;5.076;2023-08-08T11:12:39;101330.00;;;21.07;54.38
64158;BME280;50449;51.528;5.076;2023-08-08T11:15:05;101327.78;;;21.09;54.39
64158;BME280;50449;51.528;5.076;2023-08-08T11:17:30;101327.47;;;21.11;54.32
64158;BME280;50449;51.528;5.076;2023-08-08T11:19:57;101315.88;;;21.14;54.29
64158;BME280;50449;51.528;5.076;2023-08-08T11:22:22;101310.91;;;21.16;53.83
64158;BME280;50449;51.528;5.076;2023-08-08T11:24:48;101310.09;;;21.15;54.25
64158;BME280;50449;51.528;5.076;2023-08-08T11:27:14;101303.47;;;21.16;53.88
64158;BME280;50449;51.528;5.076;2023-08-08T11:29:40;101308.69;;;21.18;53.71
64158;BME280;50449;51.528;5.076;2023-08-08T11:32:05;101308.38;;;21.20;54.25
64158;BME280;50449;51.528;5.076;2023-08-08T11:34:32;101302.56;;;21.21;54.13
64158;BME280;50449;51.528;5.076;2023-08-08T11:36:57;101304.72;;;21.24;53.57
64158;BME280;50449;51.528;5.076;2023-08-08T11:39:23;101306.56;;;21.29;53.92
64158;BME280;50449;51.528;5.076;2023-08-08T11:41:48;101313.09;;;21.33;53.78
64158;BME280;50449;51.528;5.076;2023-08-08T11:44:14;101316.88;;;21.37;53.34
64158;BME280;50449;51.528;5.076;2023-08-08T11:46:43;101306.94;;;21.41;53.71
64158;BME280;50449;51.528;5.076;2023-08-08T11:49:09;101312.94;;;21.43;53.21
64158;BME280;50449;51.528;5.076;2023-08-08T11:51:34;101310.72;;;21.45;53.61
64158;BME280;50449;51.528;5.076;2023-08-08T11:54:01;101319.47;;;21.47;53.55
64158;BME280;50449;51.528;5.076;2023-08-08T11:56:26;101312.25;;;21.51;53.10
64158;BME280;50449;51.528;5.076;2023-08-08T11:58:51;101311.97;;;21.53;53.03
64158;BME280;50449;51.528;5.076;2023-08-08T12:01:21;101305.03;;;21.55;53.31
64158;BME280;50449;51.528;5.076;2023-08-08T12:03:46;101312.97;;;21.57;53.43
64158;BME280;50449;51.528;5.076;2023-08-08T12:06:13;101308.31;;;21.57;52.88
64158;BME280;50449;51.528;5.076;2023-08-08T12:08:39;101305.84;;;21.56;53.34
64158;BME280;50449;51.528;5.076;2023-08-08T12:11:05;101307.47;;;21.57;53.19
64158;BME280;50449;51.528;5.076;2023-08-08T12:13:30;101305.56;;;21.57;53.17
64158;BME280;50449;51.528;5.076;2023-08-08T12:15:55;101299.44;;;21.60;52.79
64158;BME280;50449;51.528;5.076;2023-08-08T12:18:23;101299.97;;;21.63;52.84
64158;BME280;50449;51.528;5.076;2023-08-08T12:20:49;101299.97;;;21.63;52.96
64158;BME280;50449;51.528;5.076;2023-08-08T12:23:14;101303.22;;;21.65;53.08
64158;BME280;50449;51.528;5.076;2023-08-08T12:25:41;101302.09;;;21.66;52.83
64158;BME280;50449;51.528;5.076;2023-08-08T12:28:07;101294.38;;;21.68;52.66
64158;BME280;50449;51.528;5.076;2023-08-08T12:30:32;101295.69;;;21.70;52.40
64158;BME280;50449;51.528;5.076;2023-08-08T12:32:57;101306.88;;;21.74;52.77
64158;BME280;50449;51.528;5.076;2023-08-08T12:35:23;101295.59;;;21.75;52.62
64158;BME280;50449;51.528;5.076;2023-08-08T12:37:51;101285.91;;;21.78;52.58
64158;BME280;50449;51.528;5.076;2023-08-08T12:40:17;101292.41;;;21.82;52.73
64158;BME280;50449;51.528;5.076;2023-08-08T12:42:42;101287.94;;;21.86;52.46
64158;BME280;50449;51.528;5.076;2023-08-08T12:45:07;101293.63;;;21.90;52.13
64158;BME280;50449;51.528;5.076;2023-08-08T12:47:33;101294.16;;;21.92;52.06